createdAt,value
2019-02-28T00:01:13.402Z,84.90
2019-02-28T00:03:40.178Z,85.30
2019-02-28T00:06:11.590Z,85.60
2019-02-28T00:08:35.841Z,86.30
2019-02-28T00:11:05.112Z,86.70
2019-02-28T00:13:31.509Z,87.30
2019-02-28T00:16:00.209Z,87.40
2019-02-28T00:18:26.981Z,87.70
2019-02-28T00:20:53.873Z,88.10
2019-02-28T00:23:21.968Z,88.10
2019-02-28T00:25:49.464Z,88.30
2019-02-28T00:28:16.452Z,88.30
2019-02-28T00:30:43.344Z,88.90
2019-02-28T00:33:10.106Z,89.10
2019-02-28T00:35:36.881Z,89.10
2019-02-28T00:38:03.856Z,89.60
2019-02-28T00:40:30.737Z,89.50
2019-02-28T00:42:57.609Z,89.80
2019-02-28T00:45:24.561Z,90.00
2019-02-28T00:47:51.321Z,90.10
2019-02-28T00:50:18.184Z,90.30
2019-02-28T00:52:45.065Z,90.50
2019-02-28T00:55:14.503Z,90.50
2019-02-28T00:57:40.981Z,90.30
2019-02-28T01:00:08.916Z,90.20
2019-02-28T01:02:37.088Z,90.20
2019-02-28T01:05:04.803Z,90.00
2019-02-28T01:07:32.840Z,90.00
2019-02-28T01:10:01.499Z,89.80
2019-02-28T01:12:28.395Z,89.60
2019-02-28T01:14:55.181Z,90.00
2019-02-28T01:17:24.015Z,90.20
2019-02-28T01:19:50.639Z,90.60
2019-02-28T01:22:17.421Z,91.20
2019-02-28T01:24:44.298Z,91.40
2019-02-28T01:27:11.105Z,91.60
2019-02-28T01:29:37.903Z,91.90
2019-02-28T01:32:04.794Z,92.20
2019-02-28T01:34:32.198Z,92.20
2019-02-28T01:36:59.870Z,92.60
2019-02-28T01:39:29.972Z,93.00
2019-02-28T01:41:55.354Z,92.90
2019-02-28T01:44:22.217Z,93.10
2019-02-28T01:46:49.393Z,93.30
2019-02-28T01:49:16.377Z,93.80
2019-02-28T01:51:43.148Z,93.80
2019-02-28T01:54:10.029Z,93.90
2019-02-28T01:56:37.783Z,94.00
2019-02-28T01:59:04.980Z,93.90
2019-02-28T02:01:31.756Z,94.40
2019-02-28T02:03:58.517Z,94.60
2019-02-28T02:06:25.721Z,94.30
2019-02-28T02:08:53.356Z,94.20
2019-02-28T02:11:20.130Z,94.00
2019-02-28T02:13:47.009Z,93.80
2019-02-28T02:16:13.786Z,93.50
2019-02-28T02:18:43.330Z,93.20
2019-02-28T02:21:09.441Z,93.30
2019-02-28T02:23:36.217Z,93.30
2019-02-28T02:26:03.284Z,93.50
2019-02-28T02:28:30.066Z,93.80
2019-02-28T02:30:56.848Z,93.80
2019-02-28T02:33:23.737Z,94.00
2019-02-28T02:35:50.511Z,93.90
2019-02-28T02:38:17.411Z,93.90
2019-02-28T02:40:44.282Z,93.80
2019-02-28T02:43:11.181Z,93.80
2019-02-28T02:45:41.517Z,93.90
2019-02-28T02:48:06.885Z,93.80
2019-02-28T02:50:35.920Z,94.00
2019-02-28T02:53:05.397Z,93.90
2019-02-28T02:55:31.492Z,94.10
2019-02-28T02:57:58.358Z,93.90
2019-02-28T03:00:25.237Z,94.20
2019-02-28T03:02:52.232Z,94.20
2019-02-28T03:05:19.237Z,93.80
2019-02-28T03:07:46.130Z,93.50
2019-02-28T03:10:17.290Z,93.30
2019-02-28T03:12:42.339Z,93.60
2019-02-28T03:15:10.361Z,94.00
2019-02-28T03:17:37.154Z,94.20
2019-02-28T03:20:07.409Z,94.50
2019-02-28T03:22:33.427Z,94.60
2019-02-28T03:25:00.391Z,95.60
2019-02-28T03:27:27.301Z,95.30
2019-02-28T03:29:54.081Z,95.90
2019-02-28T03:32:20.881Z,96.80
2019-02-28T03:34:54.632Z,97.20
2019-02-28T03:37:16.459Z,97.30
2019-02-28T03:39:43.445Z,97.50
2019-02-28T03:42:10.649Z,97.80
2019-02-28T03:44:37.634Z,97.90
2019-02-28T03:47:04.611Z,97.70
2019-02-28T03:49:31.514Z,97.50
2019-02-28T03:52:05.563Z,97.50
2019-02-28T03:54:28.829Z,97.20
2019-02-28T03:56:56.078Z,97.30
2019-02-28T03:59:23.074Z,97.00
2019-02-28T04:01:50.044Z,96.90
2019-02-28T04:04:17.046Z,97.10
2019-02-28T04:06:44.035Z,97.20
2019-02-28T04:09:10.927Z,96.90
2019-02-28T04:11:37.797Z,97.10
2019-02-28T04:14:04.674Z,97.50
2019-02-28T04:16:31.585Z,97.30
2019-02-28T04:18:58.373Z,97.40
2019-02-28T04:21:25.251Z,97.70
2019-02-28T04:23:52.037Z,97.40
2019-02-28T04:26:18.925Z,97.50
2019-02-28T04:28:45.687Z,97.60
2019-02-28T04:31:18.892Z,97.40
2019-02-28T04:33:41.157Z,97.00
2019-02-28T04:36:08.073Z,96.60
2019-02-28T04:38:34.836Z,96.40
2019-02-28T04:41:01.729Z,96.10
2019-02-28T04:43:28.492Z,96.30
2019-02-28T04:45:57.631Z,96.40
2019-02-28T04:48:24.058Z,96.50
2019-02-28T04:50:50.968Z,96.90
2019-02-28T04:53:18.862Z,96.90
2019-02-28T04:55:46.537Z,97.00
2019-02-28T04:58:13.409Z,96.90
2019-02-28T05:00:40.319Z,97.00
2019-02-28T05:03:07.198Z,96.60
2019-02-28T05:05:33.968Z,96.90
2019-02-28T05:08:04.676Z,97.30
2019-02-28T05:10:29.561Z,97.30
2019-02-28T05:12:56.345Z,97.80
2019-02-28T05:15:23.372Z,97.60
2019-02-28T05:17:52.919Z,97.60
2019-02-28T05:20:19.045Z,97.70
2019-02-28T05:22:45.921Z,97.70
2019-02-28T05:25:17.546Z,97.80
2019-02-28T05:27:41.572Z,97.70
2019-02-28T05:30:10.220Z,98.00
2019-02-28T05:32:36.993Z,97.60
2019-02-28T05:35:04.397Z,98.00
2019-02-28T05:37:31.183Z,97.90
2019-02-28T05:39:57.961Z,97.50
2019-02-28T05:42:24.836Z,97.60
2019-02-28T05:44:51.641Z,97.70
2019-02-28T05:47:18.432Z,97.90
2019-02-28T05:49:45.206Z,97.80
2019-02-28T05:52:12.104Z,98.10
2019-02-28T05:54:38.893Z,98.30
2019-02-28T05:57:08.235Z,98.40
2019-02-28T05:59:34.340Z,98.60
2019-02-28T06:02:01.221Z,99.10
2019-02-28T06:04:28.017Z,98.80
2019-02-28T06:06:55.586Z,99.10
2019-02-28T06:09:22.709Z,98.80
2019-02-28T06:11:49.641Z,98.70
2019-02-28T06:14:16.420Z,98.80
2019-02-28T06:16:46.166Z,99.10
2019-02-28T06:19:12.084Z,99.10
2019-02-28T06:21:38.977Z,98.70
2019-02-28T06:24:05.945Z,98.70
2019-02-28T06:26:33.019Z,98.60
2019-02-28T06:29:04.618Z,98.50
2019-02-28T06:31:28.685Z,98.90
2019-02-28T06:33:55.545Z,98.40
2019-02-28T06:36:22.330Z,97.50
2019-02-28T06:38:51.498Z,96.30
2019-02-28T06:41:17.789Z,95.30
2019-02-28T06:43:44.570Z,94.40
2019-02-28T06:46:11.564Z,93.10
2019-02-28T06:48:38.465Z,92.60
2019-02-28T06:51:05.243Z,91.60
2019-02-28T06:53:36.197Z,90.20
2019-02-28T06:56:03.346Z,88.50
2019-02-28T06:58:30.515Z,85.70
2019-02-28T07:00:58.790Z,84.70
2019-02-28T07:03:25.559Z,82.30
2019-02-28T07:05:52.307Z,81.90
2019-02-28T07:08:20.637Z,79.30
2019-02-28T07:10:48.409Z,77.40
2019-02-28T07:13:16.317Z,74.40
2019-02-28T07:15:43.180Z,73.60
2019-02-28T07:18:09.950Z,70.30
2019-02-28T07:20:37.008Z,69.40
2019-02-28T07:23:04.027Z,66.60
2019-02-28T07:25:33.049Z,64.90
2019-02-28T07:28:01.519Z,62.70
2019-02-28T07:30:28.704Z,60.60
2019-02-28T07:32:55.581Z,58.40
2019-02-28T07:35:22.357Z,56.80
2019-02-28T07:37:53.398Z,54.70
2019-02-28T07:40:18.386Z,53.30
2019-02-28T07:42:45.356Z,52.50
2019-02-28T07:45:12.417Z,51.10
2019-02-28T07:47:39.309Z,49.40
2019-02-28T07:50:07.662Z,49.10
2019-02-28T07:52:35.680Z,47.50
2019-02-28T07:55:03.134Z,46.40
2019-02-28T07:57:29.917Z,45.30
2019-02-28T07:59:56.678Z,45.00
2019-02-28T08:02:23.457Z,44.70
2019-02-28T08:04:50.679Z,43.40
2019-02-28T08:07:19.141Z,42.10
2019-02-28T08:09:46.027Z,41.20
2019-02-28T08:12:12.898Z,40.00
2019-02-28T08:14:39.794Z,38.30
2019-02-28T08:17:09.086Z,37.10
2019-02-28T08:19:35.688Z,35.70
2019-02-28T08:22:02.860Z,35.10
2019-02-28T08:24:29.819Z,33.90
2019-02-28T08:26:56.690Z,32.90
2019-02-28T08:29:23.584Z,32.30
2019-02-28T08:31:50.353Z,31.70
2019-02-28T08:34:17.142Z,30.80
2019-02-28T08:36:46.908Z,30.20
2019-02-28T08:39:16.271Z,29.90
2019-02-28T08:41:43.449Z,29.40
2019-02-28T08:44:10.421Z,29.00
2019-02-28T08:46:37.282Z,29.40
2019-02-28T08:49:07.201Z,28.50
2019-02-28T08:51:33.431Z,28.70
2019-02-28T08:54:00.317Z,29.10
2019-02-28T08:56:27.297Z,29.60
2019-02-28T08:58:54.077Z,29.40
2019-02-28T09:01:20.937Z,28.30
2019-02-28T09:03:47.727Z,28.00
2019-02-28T09:06:14.497Z,27.70
2019-02-28T09:08:41.378Z,27.50
2019-02-28T09:11:08.370Z,27.00
2019-02-28T09:13:35.256Z,26.70
2019-02-28T09:16:04.867Z,27.00
2019-02-28T09:18:31.014Z,26.90
2019-02-28T09:20:57.896Z,26.70
2019-02-28T09:23:24.878Z,27.80
2019-02-28T09:25:53.347Z,29.10
2019-02-28T09:28:20.880Z,30.90
2019-02-28T09:30:47.845Z,31.70
2019-02-28T09:33:14.725Z,31.40
2019-02-28T09:35:45.290Z,31.40
2019-02-28T09:38:13.323Z,31.80
2019-02-28T09:40:41.143Z,32.10
2019-02-28T09:43:08.067Z,31.70
2019-02-28T09:45:34.951Z,33.20
2019-02-28T09:48:02.444Z,35.00
2019-02-28T09:50:29.623Z,34.90
2019-02-28T09:52:56.503Z,34.90
2019-02-28T09:55:23.380Z,35.20
2019-02-28T09:57:53.667Z,35.20
2019-02-28T10:00:19.276Z,35.20
2019-02-28T10:02:46.251Z,34.70
2019-02-28T10:05:13.274Z,33.50
2019-02-28T10:07:40.261Z,34.60
2019-02-28T10:10:10.068Z,34.30
2019-02-28T10:12:39.421Z,35.00
2019-02-28T10:15:07.860Z,34.80
2019-02-28T10:17:34.729Z,33.90
2019-02-28T10:20:02.049Z,34.40
2019-02-28T10:22:28.809Z,34.40
2019-02-28T10:24:55.777Z,34.60
2019-02-28T10:27:23.296Z,34.50
2019-02-28T10:29:51.429Z,35.00
2019-02-28T10:32:18.190Z,34.50
2019-02-28T10:34:45.083Z,34.10
2019-02-28T10:37:12.061Z,33.70
2019-02-28T10:39:40.286Z,35.00
2019-02-28T10:42:07.625Z,35.90
2019-02-28T10:44:34.602Z,35.50
2019-02-28T10:47:01.501Z,34.00
2019-02-28T10:49:28.265Z,34.10
2019-02-28T10:51:55.270Z,34.10
2019-02-28T10:54:22.153Z,32.60
2019-02-28T10:56:49.159Z,31.60
2019-02-28T10:59:16.029Z,31.00
2019-02-28T11:01:43.314Z,31.90
2019-02-28T11:04:10.329Z,33.30
2019-02-28T11:06:38.601Z,33.60
2019-02-28T11:09:05.763Z,33.60
2019-02-28T11:11:32.671Z,34.60
2019-02-28T11:13:59.546Z,33.60
2019-02-28T11:16:26.436Z,34.70
2019-02-28T11:18:53.281Z,35.00
2019-02-28T11:21:20.765Z,33.80
2019-02-28T11:23:50.120Z,32.20
2019-02-28T11:26:16.605Z,31.00
2019-02-28T11:28:43.470Z,29.40
2019-02-28T11:31:11.187Z,29.50
2019-02-28T11:33:39.670Z,29.40
2019-02-28T11:36:07.538Z,28.80
2019-02-28T11:38:34.668Z,29.80
2019-02-28T11:41:01.547Z,30.40
2019-02-28T11:43:28.510Z,30.70
2019-02-28T11:45:56.551Z,31.70
2019-02-28T11:48:24.428Z,31.90
2019-02-28T11:50:51.226Z,32.10
2019-02-28T11:53:19.146Z,32.70
2019-02-28T11:55:46.253Z,32.40
2019-02-28T11:58:16.288Z,32.90
2019-02-28T12:00:42.036Z,32.70
2019-02-28T12:03:09.014Z,34.80
2019-02-28T12:05:35.897Z,35.30
2019-02-28T12:08:03.083Z,35.40
2019-02-28T12:10:30.060Z,33.10
2019-02-28T12:12:56.968Z,31.60
2019-02-28T12:15:24.959Z,31.60
2019-02-28T12:17:51.966Z,31.30
2019-02-28T12:20:18.824Z,30.40
2019-02-28T12:22:49.348Z,29.60
2019-02-28T12:25:16.149Z,28.90
2019-02-28T12:27:43.041Z,27.50
2019-02-28T12:30:15.384Z,28.00
2019-02-28T12:32:43.367Z,27.60
2019-02-28T12:35:11.204Z,27.50
2019-02-28T12:37:38.092Z,27.80
2019-02-28T12:40:07.418Z,28.60
2019-02-28T12:42:35.374Z,30.00
2019-02-28T12:45:03.177Z,30.80
2019-02-28T12:47:33.754Z,31.60
2019-02-28T12:50:00.767Z,32.70
2019-02-28T12:52:27.850Z,34.00
2019-02-28T12:54:54.725Z,34.90
2019-02-28T12:57:22.327Z,34.90
2019-02-28T12:59:50.011Z,33.50
2019-02-28T13:02:16.920Z,32.80
2019-02-28T13:04:43.809Z,32.10
2019-02-28T13:07:10.710Z,32.40
2019-02-28T13:09:37.761Z,33.70
2019-02-28T13:12:08.107Z,33.10
2019-02-28T13:14:36.883Z,33.30
2019-02-28T13:17:02.459Z,33.80
2019-02-28T13:19:29.429Z,33.60
2019-02-28T13:21:56.425Z,32.90
2019-02-28T13:24:23.389Z,31.60
2019-02-28T13:26:50.470Z,30.20
2019-02-28T13:29:17.336Z,29.80
2019-02-28T13:31:44.306Z,29.20
2019-02-28T13:34:11.293Z,29.60
2019-02-28T13:36:38.074Z,30.50
2019-02-28T13:39:07.115Z,30.50
2019-02-28T13:41:33.889Z,30.10
2019-02-28T13:44:00.782Z,29.50
2019-02-28T13:46:32.486Z,29.70
2019-02-28T13:48:56.445Z,32.30
2019-02-28T13:51:23.334Z,32.40
2019-02-28T13:53:50.235Z,32.80
2019-02-28T13:56:18.073Z,32.00
2019-02-28T13:58:45.114Z,31.70
2019-02-28T14:01:12.085Z,31.70
2019-02-28T14:03:42.267Z,33.40
2019-02-28T14:06:07.656Z,34.20
2019-02-28T14:08:34.640Z,35.20
2019-02-28T14:11:01.522Z,35.10
2019-02-28T14:13:30.094Z,35.00
2019-02-28T14:15:57.185Z,35.10
2019-02-28T14:18:24.066Z,33.90
2019-02-28T14:20:50.942Z,34.00
2019-02-28T14:23:20.870Z,34.30
2019-02-28T14:25:46.714Z,34.20
2019-02-28T14:28:13.562Z,33.20
2019-02-28T14:30:40.349Z,33.40
2019-02-28T14:33:07.760Z,34.10
2019-02-28T14:35:37.624Z,34.60
2019-02-28T14:38:03.913Z,34.30
2019-02-28T14:40:30.878Z,34.00
2019-02-28T14:42:57.861Z,35.10
2019-02-28T14:45:24.850Z,34.60
2019-02-28T14:47:56.948Z,34.40
2019-02-28T14:50:20.855Z,34.10
2019-02-28T14:52:48.450Z,34.60
2019-02-28T14:55:15.343Z,35.30
2019-02-28T14:57:43.545Z,34.80
2019-02-28T15:00:13.349Z,35.20
2019-02-28T15:02:40.335Z,35.60
2019-02-28T15:05:08.794Z,36.40
2019-02-28T15:07:38.683Z,36.00
2019-02-28T15:10:06.798Z,35.60
2019-02-28T15:12:33.677Z,36.20
2019-02-28T15:15:00.454Z,37.70
2019-02-28T15:17:27.358Z,36.60
2019-02-28T15:19:56.982Z,36.40
2019-02-28T15:22:23.020Z,37.00
2019-02-28T15:24:49.809Z,37.60
2019-02-28T15:27:16.581Z,37.50
2019-02-28T15:29:43.370Z,38.10
2019-02-28T15:32:10.137Z,39.10
2019-02-28T15:34:37.514Z,40.60
2019-02-28T15:37:05.813Z,41.50
2019-02-28T15:39:32.690Z,42.40
2019-02-28T15:41:59.465Z,43.40
2019-02-28T15:44:29.288Z,44.50
2019-02-28T15:46:55.759Z,44.30
2019-02-28T15:49:22.698Z,43.30
2019-02-28T15:51:49.682Z,43.70
2019-02-28T15:54:16.489Z,44.60
2019-02-28T15:56:43.479Z,46.00
2019-02-28T15:59:11.638Z,46.80
2019-02-28T16:01:39.346Z,47.90
2019-02-28T16:04:06.363Z,49.30
2019-02-28T16:06:33.246Z,51.80
2019-02-28T16:09:00.038Z,53.10
2019-02-28T16:11:27.009Z,53.60
2019-02-28T16:13:53.901Z,53.80
2019-02-28T16:16:21.456Z,53.90
2019-02-28T16:18:49.695Z,54.10
2019-02-28T16:21:16.593Z,54.20
2019-02-28T16:23:43.674Z,55.00
2019-02-28T16:26:10.551Z,55.30
2019-02-28T16:28:39.457Z,55.70
2019-02-28T16:31:07.547Z,56.10
2019-02-28T16:33:34.681Z,56.60
2019-02-28T16:36:01.461Z,57.10
2019-02-28T16:38:28.361Z,57.70
2019-02-28T16:40:57.677Z,58.00
2019-02-28T16:43:24.551Z,58.40
2019-02-28T16:45:51.593Z,58.90
2019-02-28T16:48:18.549Z,59.20
2019-02-28T16:50:45.557Z,59.70
2019-02-28T16:53:16.184Z,59.60
2019-02-28T16:55:41.393Z,59.90
2019-02-28T16:58:08.496Z,60.00
2019-02-28T17:00:35.492Z,60.20
2019-02-28T17:03:04.157Z,60.70
2019-02-28T17:05:32.162Z,60.90
2019-02-28T17:07:59.061Z,61.10
2019-02-28T17:10:31.066Z,61.30
2019-02-28T17:13:17.619Z,62.20
2019-02-28T17:16:02.698Z,61.80
2019-02-28T17:18:30.664Z,62.10
2019-02-28T17:20:57.543Z,62.70
2019-02-28T17:23:24.530Z,63.10
2019-02-28T17:25:53.466Z,63.70
2019-02-28T17:28:39.779Z,64.10
2019-02-28T17:31:29.128Z,64.90
2019-02-28T17:33:56.101Z,65.90
2019-02-28T17:36:23.007Z,66.80
2019-02-28T17:38:50.070Z,67.60
2019-02-28T17:41:16.962Z,68.70
2019-02-28T17:44:20.152Z,69.30
2019-02-28T17:46:49.273Z,70.90
2019-02-28T17:49:56.490Z,72.30
2019-02-28T17:52:33.656Z,73.50
2019-02-28T17:55:27.039Z,75.30
2019-02-28T17:58:08.910Z,76.80
2019-02-28T18:01:12.136Z,78.40
2019-02-28T18:04:33.045Z,79.40
2019-02-28T18:07:45.689Z,80.30
2019-02-28T18:10:55.759Z,81.00
2019-02-28T18:13:56.114Z,81.70
2019-02-28T18:17:07.853Z,82.50
2019-02-28T18:20:12.365Z,83.00
2019-02-28T18:23:03.120Z,83.90
2019-02-28T18:25:52.024Z,84.40
2019-02-28T18:28:49.113Z,84.90
2019-02-28T18:31:19.261Z,84.80
2019-02-28T18:34:09.050Z,83.80
2019-02-28T18:36:35.918Z,83.70
2019-02-28T18:39:08.174Z,84.00
2019-02-28T18:41:34.072Z,83.90
2019-02-28T18:44:03.671Z,84.00
2019-02-28T18:46:30.778Z,84.40
2019-02-28T18:48:57.905Z,84.50
2019-02-28T18:51:24.770Z,84.60
2019-02-28T18:53:51.701Z,84.50
2019-02-28T18:56:18.686Z,85.00
2019-02-28T18:58:45.460Z,85.50
2019-02-28T19:01:12.345Z,85.60
2019-02-28T19:03:39.205Z,85.90
2019-02-28T19:06:06.090Z,86.30
2019-02-28T19:08:32.950Z,86.30
2019-02-28T19:10:59.937Z,86.30
2019-02-28T19:13:26.707Z,86.30
2019-02-28T19:15:53.612Z,86.80
2019-02-28T19:18:20.542Z,86.80
2019-02-28T19:20:47.523Z,86.90
2019-02-28T19:23:14.496Z,87.00
2019-02-28T19:25:41.454Z,87.00
2019-02-28T19:28:08.341Z,87.30
2019-02-28T19:30:35.333Z,87.10
2019-02-28T19:33:02.302Z,86.20
2019-02-28T19:35:29.177Z,86.20
2019-02-28T19:37:56.071Z,86.10
2019-02-28T19:40:22.846Z,85.40
2019-02-28T19:42:49.619Z,85.00
2019-02-28T19:45:16.421Z,84.70
2019-02-28T19:47:43.209Z,84.70
2019-02-28T19:50:10.185Z,83.10
2019-02-28T19:52:37.171Z,83.10
2019-02-28T19:55:04.817Z,83.30
2019-02-28T19:57:31.610Z,83.50
2019-02-28T19:59:58.408Z,82.00
2019-02-28T20:02:25.500Z,82.50
2019-02-28T20:04:52.372Z,81.70
2019-02-28T20:07:19.170Z,80.30
2019-02-28T20:09:46.036Z,81.40
2019-02-28T20:12:12.913Z,80.90
2019-02-28T20:14:39.780Z,80.70
2019-02-28T20:17:06.578Z,81.20
2019-02-28T20:19:33.446Z,81.20
2019-02-28T20:22:00.430Z,81.50
2019-02-28T20:24:27.443Z,81.00
2019-02-28T20:26:54.314Z,80.90
2019-02-28T20:29:21.087Z,80.50
2019-02-28T20:31:48.069Z,80.40
2019-02-28T20:34:15.055Z,80.10
2019-02-28T20:36:42.036Z,79.90
2019-02-28T20:39:10.610Z,79.70
2019-02-28T20:41:37.584Z,79.50
2019-02-28T20:44:04.489Z,79.20
2019-02-28T20:46:31.445Z,79.50
2019-02-28T20:48:58.214Z,79.70
2019-02-28T20:51:25.083Z,79.80
2019-02-28T20:53:51.869Z,79.90
2019-02-28T20:56:18.760Z,80.60
2019-02-28T20:58:45.646Z,80.20
2019-02-28T21:01:12.537Z,80.30
2019-02-28T21:03:39.338Z,80.30
2019-02-28T21:06:06.129Z,80.30
2019-02-28T21:08:33.009Z,80.50
2019-02-28T21:10:59.980Z,80.60
2019-02-28T21:13:26.976Z,80.40
2019-02-28T21:15:53.838Z,80.40
2019-02-28T21:18:20.613Z,80.50
2019-02-28T21:20:47.517Z,80.80
2019-02-28T21:23:14.285Z,81.70
2019-02-28T21:25:41.167Z,81.80
2019-02-28T21:28:08.148Z,81.90
2019-02-28T21:30:35.149Z,82.20
2019-02-28T21:33:02.142Z,82.60
2019-02-28T21:35:29.203Z,83.30
2019-02-28T21:37:56.181Z,83.50
2019-02-28T21:40:23.482Z,83.80
2019-02-28T21:42:50.472Z,84.10
2019-02-28T21:45:17.574Z,83.80
2019-02-28T21:47:44.580Z,83.90
2019-02-28T21:50:12.219Z,84.30
2019-02-28T21:52:39.219Z,84.70
2019-02-28T21:55:07.587Z,84.80
2019-02-28T21:57:34.718Z,85.40
2019-02-28T22:00:01.660Z,86.40
2019-02-28T22:02:28.629Z,85.70
2019-02-28T22:04:55.442Z,86.00
2019-02-28T22:07:22.252Z,86.50
2019-02-28T22:09:49.151Z,87.60
2019-02-28T22:12:16.154Z,88.50
2019-02-28T22:14:42.960Z,88.80
2019-02-28T22:17:09.953Z,89.80
2019-02-28T22:19:36.845Z,90.10
2019-02-28T22:22:03.714Z,90.30
2019-02-28T22:24:30.514Z,90.40
2019-02-28T22:26:57.385Z,90.50
2019-02-28T22:29:24.180Z,90.60
2019-02-28T22:32:24.444Z,90.90
2019-02-28T22:35:19.275Z,91.00
2019-02-28T22:37:46.199Z,91.10
2019-02-28T22:40:13.099Z,91.60
2019-02-28T22:42:40.057Z,92.10
2019-02-28T22:45:07.156Z,92.50
2019-02-28T22:47:34.065Z,92.80
2019-02-28T22:50:00.995Z,93.10
2019-02-28T22:52:27.755Z,93.50
2019-02-28T22:54:54.663Z,93.80
2019-02-28T22:57:21.684Z,94.10
2019-02-28T22:59:48.578Z,94.30
2019-02-28T23:02:15.566Z,94.70
2019-02-28T23:04:42.568Z,95.10
2019-02-28T23:07:09.577Z,95.60
2019-02-28T23:09:36.482Z,95.90
2019-02-28T23:12:03.472Z,96.10
2019-02-28T23:14:30.362Z,96.10
2019-02-28T23:16:57.162Z,96.20
2019-02-28T23:19:24.040Z,96.60
2019-02-28T23:21:50.818Z,97.60
2019-02-28T23:24:17.599Z,98.40
2019-02-28T23:27:13.041Z,98.70
2019-02-28T23:30:18.038Z,99.30
2019-02-28T23:32:50.005Z,99.30
2019-02-28T23:35:20.621Z,99.80
2019-02-28T23:37:47.480Z,99.90
2019-02-28T23:40:14.411Z,99.90
2019-02-28T23:42:41.434Z,99.90
2019-02-28T23:45:08.419Z,99.90
2019-02-28T23:47:35.266Z,99.90
2019-02-28T23:50:02.649Z,99.90
2019-02-28T23:52:29.624Z,99.90
2019-02-28T23:54:56.418Z,99.90
2019-02-28T23:57:23.211Z,99.90
2019-02-28T23:59:50.020Z,99.90
